Time;durP1;ratioP1;P1;durP2;ratioP2;P2;SDS_P1;SDS_P2;PMS_P1;PMS_P2;Temp;Humidity;BMP_temperature;BMP_pressure;BME280_temperature;BME280_humidity;BME280_pressure;Samples;Min_cycle;Max_cycle;Signal;HPM_P1;HPM_P2
2024/02/13 00:00:58;;;;;;;6.63;6.17;;;8.90;25.50;;;;;;5065483;28;20179;-80
2024/02/13 00:03:24;;;;;;;6.20;5.90;;;8.90;25.80;;;;;;5064798;28;20172;-80
2024/02/13 00:05:53;;;;;;;7.13;6.33;;;8.90;25.80;;;;;;5063789;28;20950;-81
2024/02/13 00:08:19;;;;;;;7.50;7.00;;;8.90;26.00;;;;;;5065071;28;20454;-77
2024/02/13 00:10:45;;;;;;;7.57;6.90;;;8.90;25.60;;;;;;5065014;28;20419;-78
2024/02/13 00:13:11;;;;;;;6.60;6.00;;;8.90;25.50;;;;;;5064110;28;20180;-80
2024/02/13 00:15:38;;;;;;;8.23;7.40;;;8.80;25.90;;;;;;5064415;28;20564;-79
2024/02/13 00:18:05;;;;;;;7.97;7.20;;;8.80;25.90;;;;;;5064410;28;20171;-78
2024/02/13 00:20:32;;;;;;;7.93;7.37;;;8.80;25.80;;;;;;5063345;28;20455;-79
2024/02/13 00:22:59;;;;;;;7.20;6.57;;;8.80;25.80;;;;;;5063024;28;20411;-79
2024/02/13 00:25:26;;;;;;;7.73;7.00;;;8.60;26.00;;;;;;5063592;28;20450;-80
2024/02/13 00:27:52;;;;;;;7.10;6.50;;;8.60;26.50;;;;;;5064303;28;20449;-79
2024/02/13 00:30:19;;;;;;;7.47;6.93;;;8.60;26.30;;;;;;5061611;28;20418;-79
2024/02/13 00:32:44;;;;;;;7.30;6.70;;;8.50;26.40;;;;;;5073131;28;20744;-80
2024/02/13 00:35:10;;;;;;;7.73;7.17;;;8.50;26.60;;;;;;5061494;28;20457;-80
2024/02/13 00:37:39;;;;;;;7.27;6.60;;;8.50;27.00;;;;;;5064017;28;20186;-80
2024/02/13 00:40:09;;;;;;;6.80;6.20;;;8.50;26.90;;;;;;5055014;28;20207;-79
2024/02/13 00:42:35;;;;;;;7.10;6.70;;;8.60;26.60;;;;;;5063546;28;20415;-81
2024/02/13 00:45:05;;;;;;;7.87;7.20;;;8.70;26.30;;;;;;5069519;28;20448;-80
2024/02/13 00:47:30;;;;;;;7.43;6.83;;;8.70;26.30;;;;;;5068023;28;20502;-79
2024/02/13 00:49:57;;;;;;;7.40;6.80;;;8.70;26.40;;;;;;5070407;28;20426;-79
2024/02/13 00:52:23;;;;;;;7.23;6.63;;;8.80;26.40;;;;;;5073082;28;20529;-80
2024/02/13 00:54:49;;;;;;;7.80;7.10;;;8.90;26.40;;;;;;5069270;28;20541;-79
2024/02/13 00:57:15;;;;;;;7.00;6.33;;;8.90;26.10;;;;;;5058370;28;20410;-81
2024/02/13 00:59:40;;;;;;;8.47;7.67;;;9.10;25.90;;;;;;5065165;28;20413;-79
2024/02/13 01:02:06;;;;;;;7.50;6.77;;;9.00;25.90;;;;;;5068241;28;20211;-79
2024/02/13 01:04:32;;;;;;;9.30;6.67;;;9.10;26.10;;;;;;5068103;28;20199;-80
2024/02/13 01:06:57;;;;;;;7.57;6.97;;;8.90;26.20;;;;;;5069503;28;20200;-80
2024/02/13 01:09:23;;;;;;;8.03;6.90;;;8.90;26.10;;;;;;5068940;28;20675;-78
2024/02/13 01:11:48;;;;;;;10.07;6.50;;;8.90;26.10;;;;;;5070111;28;20207;-79
2024/02/13 01:14:14;;;;;;;7.40;6.70;;;8.80;26.40;;;;;;5084430;28;20434;-79
2024/02/13 01:16:40;;;;;;;7.17;6.57;;;8.90;26.50;;;;;;5067813;28;20230;-80
2024/02/13 01:19:06;;;;;;;7.30;6.63;;;8.90;26.50;;;;;;5067766;28;20187;-79
2024/02/13 01:21:31;;;;;;;6.83;6.30;;;9.00;26.50;;;;;;5069247;28;20212;-80
2024/02/13 01:23:57;;;;;;;7.17;6.57;;;9.00;26.20;;;;;;5068906;28;20472;-77
2024/02/13 01:26:23;;;;;;;6.87;6.17;;;9.00;26.50;;;;;;5067840;28;20232;-79
2024/02/13 01:28:49;;;;;;;7.23;6.73;;;8.90;26.60;;;;;;5068889;28;20643;-78
2024/02/13 01:31:15;;;;;;;6.73;6.23;;;8.80;26.80;;;;;;5065147;28;20445;-79
2024/02/13 01:33:41;;;;;;;7.93;7.23;;;8.80;27.00;;;;;;5071845;28;20184;-79
2024/02/13 01:36:08;;;;;;;8.10;5.87;;;8.90;26.90;;;;;;5055661;28;20473;-80
2024/02/13 01:38:33;;;;;;;6.53;6.03;;;8.90;26.50;;;;;;5067517;28;20486;-79
2024/02/13 01:40:59;;;;;;;7.07;6.50;;;8.90;27.00;;;;;;5056457;28;20458;-80
2024/02/13 01:43:25;;;;;;;10.53;6.80;;;8.90;26.40;;;;;;5056927;28;20180;-80
2024/02/13 01:45:56;;;;;;;7.13;6.47;;;8.90;26.60;;;;;;5056294;28;20521;-80
2024/02/13 01:48:24;;;;;;;7.30;6.77;;;8.90;26.60;;;;;;5057591;28;20597;-78
2024/02/13 01:50:50;;;;;;;7.93;7.13;;;8.90;26.40;;;;;;5075012;28;20428;-77
2024/02/13 01:53:21;;;;;;;6.93;6.50;;;8.90;26.50;;;;;;5057460;28;20462;-79
2024/02/13 01:55:48;;;;;;;7.83;7.03;;;8.80;26.30;;;;;;5058877;28;20216;-82
2024/02/13 01:58:15;;;;;;;7.43;6.90;;;8.90;26.40;;;;;;5056944;28;20418;-77
2024/02/13 02:00:42;;;;;;;7.17;6.67;;;8.90;26.30;;;;;;5057451;28;20475;-79
2024/02/13 02:03:10;;;;;;;6.60;6.30;;;8.90;26.10;;;;;;5058969;28;20509;-79
2024/02/13 02:05:36;;;;;;;7.70;7.10;;;9.00;26.20;;;;;;5058404;28;20437;-80
2024/02/13 02:08:02;;;;;;;7.93;7.37;;;9.00;25.90;;;;;;5060068;28;20432;-78
2024/02/13 02:10:27;;;;;;;8.10;7.47;;;9.00;26.20;;;;;;5058247;28;20605;-78
2024/02/13 02:12:53;;;;;;;7.30;6.63;;;9.00;25.50;;;;;;5058025;28;20214;-79
2024/02/13 02:15:18;;;;;;;7.30;6.97;;;8.90;26.00;;;;;;5058081;28;20215;-78
2024/02/13 02:17:51;;;;;;;7.20;6.50;;;9.00;25.90;;;;;;5057547;28;20214;-77
2024/02/13 02:20:22;;;;;;;8.13;7.40;;;9.00;26.00;;;;;;5059193;28;20241;-79
2024/02/13 02:22:48;;;;;;;7.50;6.97;;;9.00;26.10;;;;;;5059278;28;20410;-78
2024/02/13 02:25:23;;;;;;;7.60;7.00;;;9.30;25.70;;;;;;5061454;28;20442;-80
2024/02/13 02:27:49;;;;;;;7.60;7.00;;;9.30;25.20;;;;;;5062322;28;20477;-80
2024/02/13 02:30:15;;;;;;;7.20;6.50;;;9.20;25.30;;;;;;5057750;28;20977;-82
2024/02/13 02:32:41;;;;;;;6.80;6.40;;;9.30;25.40;;;;;;5057229;28;20274;-79
2024/02/13 02:35:07;;;;;;;7.40;6.90;;;9.30;25.00;;;;;;5057765;28;20215;-79
2024/02/13 02:37:35;;;;;;;8.40;7.60;;;9.30;24.60;;;;;;5068183;28;20407;-80
2024/02/13 02:40:01;;;;;;;7.47;6.90;;;9.20;25.40;;;;;;5080963;28;20455;-80
2024/02/13 02:42:26;;;;;;;7.17;6.17;;;9.00;25.80;;;;;;5068139;28;20410;-79
2024/02/13 02:44:53;;;;;;;6.87;6.57;;;9.10;25.80;;;;;;5068100;28;20427;-79
2024/02/13 02:47:19;;;;;;;7.30;6.70;;;9.20;25.80;;;;;;5067919;28;20180;-80
2024/02/13 02:49:45;;;;;;;7.50;6.80;;;9.00;25.70;;;;;;5066475;28;20425;-77
2024/02/13 02:52:11;;;;;;;6.63;6.23;;;9.20;26.00;;;;;;5068091;28;20421;-77
2024/02/13 02:54:36;;;;;;;7.40;6.80;;;9.30;25.60;;;;;;5066793;28;20439;-80
2024/02/13 02:57:04;;;;;;;7.93;7.23;;;9.40;25.40;;;;;;5068347;28;20212;-81
2024/02/13 02:59:30;;;;;;;6.80;6.30;;;9.60;24.70;;;;;;5066466;28;20176;-81
2024/02/13 03:01:56;;;;;;;7.43;7.03;;;9.80;23.90;;;;;;5065933;28;20426;-81
2024/02/13 03:04:21;;;;;;;7.30;6.70;;;9.90;23.90;;;;;;5074690;28;20994;-80
2024/02/13 03:06:47;;;;;;;6.90;6.50;;;10.00;23.20;;;;;;5079662;28;20212;-80
2024/02/13 03:09:12;;;;;;;6.23;5.83;;;10.00;22.60;;;;;;5054582;28;20180;-79
2024/02/13 03:11:38;;;;;;;6.40;5.83;;;10.10;22.60;;;;;;5061966;28;20211;-78
2024/02/13 03:14:04;;;;;;;7.23;6.73;;;10.20;22.40;;;;;;5061679;28;20188;-80
2024/02/13 03:16:30;;;;;;;7.67;7.07;;;10.10;22.30;;;;;;5072259;28;20722;-79
2024/02/13 03:18:56;;;;;;;14.23;7.80;;;10.10;22.30;;;;;;5070362;28;20295;-78
2024/02/13 03:21:21;;;;;;;8.00;7.30;;;9.80;23.80;;;;;;5060154;28;20693;-78
2024/02/13 03:23:47;;;;;;;7.53;7.03;;;9.70;23.70;;;;;;5068153;28;20644;-80
2024/02/13 03:26:13;;;;;;;7.20;6.47;;;9.40;24.50;;;;;;5058779;28;20450;-79
2024/02/13 03:28:38;;;;;;;7.07;6.60;;;9.30;24.80;;;;;;5055664;28;20550;-80
2024/02/13 03:31:04;;;;;;;7.40;6.67;;;9.00;25.50;;;;;;5055280;28;20695;-79
2024/02/13 03:33:30;;;;;;;7.30;6.73;;;8.70;26.70;;;;;;5053845;28;20466;-79
2024/02/13 03:35:56;;;;;;;7.07;6.73;;;8.70;26.70;;;;;;5054728;28;20458;-80
2024/02/13 03:38:22;;;;;;;7.53;6.83;;;8.60;27.00;;;;;;5054046;28;20418;-78
2024/02/13 03:40:47;;;;;;;7.50;7.10;;;8.50;27.50;;;;;;5053030;28;20555;-79
2024/02/13 03:43:13;;;;;;;8.33;7.53;;;8.50;27.60;;;;;;5053882;28;20190;-79
2024/02/13 03:45:38;;;;;;;7.77;7.17;;;8.40;27.80;;;;;;5054619;28;20200;-79
2024/02/13 03:48:04;;;;;;;6.90;6.60;;;8.30;27.90;;;;;;5052834;28;20176;-82
2024/02/13 03:50:30;;;;;;;6.83;6.33;;;8.30;27.80;;;;;;5055218;28;20199;-78
2024/02/13 03:52:56;;;;;;;6.40;6.00;;;8.30;27.80;;;;;;5054998;28;20267;-79
2024/02/13 03:55:21;;;;;;;7.70;7.10;;;8.50;27.60;;;;;;5055779;28;20196;-80
2024/02/13 03:57:47;;;;;;;8.83;7.40;;;8.50;27.30;;;;;;5053845;28;20414;-80
2024/02/13 04:00:13;;;;;;;6.73;6.33;;;8.50;27.10;;;;;;5056180;28;20740;-79
2024/02/13 04:02:39;;;;;;;7.57;7.07;;;8.50;27.20;;;;;;5059131;28;20203;-78
2024/02/13 04:05:05;;;;;;;7.90;7.17;;;8.40;27.40;;;;;;5065337;28;20441;-78
2024/02/13 04:07:31;;;;;;;6.83;6.43;;;8.40;27.70;;;;;;5058133;28;20449;-79
2024/02/13 04:09:56;;;;;;;6.87;6.47;;;8.30;28.00;;;;;;5061874;28;20448;-78
2024/02/13 04:12:22;;;;;;;7.00;6.70;;;8.30;28.30;;;;;;5063703;28;20179;-78
2024/02/13 04:14:49;;;;;;;7.60;7.07;;;8.40;28.20;;;;;;5063825;28;20271;-77
2024/02/13 04:17:16;;;;;;;8.07;7.57;;;8.30;28.20;;;;;;5062583;28;20267;-77
2024/02/13 04:19:41;;;;;;;7.73;7.10;;;8.30;28.60;;;;;;5055583;28;20437;-78
2024/02/13 04:22:07;;;;;;;8.60;7.87;;;8.30;28.70;;;;;;5056650;28;20442;-77
2024/02/13 04:24:33;;;;;;;8.03;7.53;;;8.40;28.60;;;;;;5058016;28;20229;-78
2024/02/13 04:26:58;;;;;;;7.60;7.30;;;8.40;28.40;;;;;;5058464;28;20422;-77
2024/02/13 04:29:24;;;;;;;7.80;7.37;;;8.40;28.50;;;;;;5055021;28;20184;-78
2024/02/13 04:31:49;;;;;;;7.80;7.40;;;8.50;28.70;;;;;;5054410;28;20655;-78
2024/02/13 04:34:15;;;;;;;7.17;6.77;;;8.50;28.70;;;;;;5055202;28;20186;-77
2024/02/13 04:36:40;;;;;;;7.47;7.00;;;8.60;28.60;;;;;;5056001;28;20206;-77
2024/02/13 04:39:06;;;;;;;7.60;7.20;;;8.60;28.10;;;;;;5057783;28;20215;-77
2024/02/13 04:41:32;;;;;;;7.70;7.27;;;8.70;28.20;;;;;;5054459;28;20659;-78
2024/02/13 04:43:58;;;;;;;7.73;7.03;;;8.70;28.10;;;;;;5053419;28;20422;-77
2024/02/13 04:46:24;;;;;;;8.20;7.70;;;8.90;27.80;;;;;;5052994;28;20442;-78
2024/02/13 04:48:53;;;;;;;7.23;6.87;;;9.00;27.40;;;;;;5059177;28;20424;-78
2024/02/13 04:51:19;;;;;;;8.07;7.53;;;9.30;26.90;;;;;;5055214;28;20187;-78
2024/02/13 04:53:45;;;;;;;8.20;7.60;;;9.50;26.60;;;;;;5054895;28;20418;-78
2024/02/13 04:56:11;;;;;;;7.63;7.10;;;9.70;25.80;;;;;;5055373;28;20195;-78
2024/02/13 04:58:36;;;;;;;7.23;6.90;;;9.90;25.10;;;;;;5056140;28;20449;-79
2024/02/13 05:01:05;;;;;;;7.33;6.80;;;10.10;23.60;;;;;;5054848;28;20260;-79
2024/02/13 05:08:59;;;;;;;8.80;8.30;;;10.40;22.80;;;;;;5057531;28;20444;-79
2024/02/13 05:11:28;;;;;;;7.40;7.07;;;10.40;22.60;;;;;;5059014;28;20433;-79
2024/02/13 05:14:03;;;;;;;7.57;6.97;;;10.30;22.60;;;;;;5059844;28;20454;-79
2024/02/13 05:16:29;;;;;;;7.27;6.90;;;10.10;23.30;;;;;;5068445;28;20469;-78
2024/02/13 05:18:55;;;;;;;8.23;7.83;;;10.10;23.30;;;;;;5075347;28;20441;-78
2024/02/13 05:21:21;;;;;;;7.40;7.00;;;10.10;23.30;;;;;;5071585;28;20450;-79
2024/02/13 05:23:50;;;;;;;8.60;7.90;;;10.00;23.20;;;;;;5070132;28;20204;-78
2024/02/13 05:26:20;;;;;;;7.63;7.20;;;9.90;24.40;;;;;;5075456;28;20493;-78
2024/02/13 05:28:46;;;;;;;8.23;7.83;;;9.80;25.00;;;;;;5075429;28;20406;-77
2024/02/13 05:31:11;;;;;;;8.00;7.37;;;9.80;24.90;;;;;;5076377;28;20411;-77
2024/02/13 05:33:38;;;;;;;7.80;7.40;;;9.80;24.60;;;;;;5075897;28;20437;-78
2024/02/13 05:36:04;;;;;;;8.20;7.70;;;10.00;23.80;;;;;;5078752;28;20216;-79
2024/02/13 05:38:37;;;;;;;7.87;7.47;;;10.10;23.50;;;;;;5077168;28;20433;-77
2024/02/13 05:41:04;;;;;;;7.20;6.80;;;10.20;23.30;;;;;;5057010;28;20509;-78
2024/02/13 05:43:30;;;;;;;8.40;7.90;;;10.10;23.30;;;;;;5060690;28;20418;-77
2024/02/13 05:45:56;;;;;;;7.37;6.83;;;9.80;24.30;;;;;;5060278;28;20438;-77
2024/02/13 05:48:22;;;;;;;6.70;6.40;;;9.60;24.80;;;;;;5063322;28;20194;-77
2024/02/13 05:50:50;;;;;;;7.50;7.03;;;9.50;25.30;;;;;;5065864;28;20490;-78
2024/02/13 05:53:16;;;;;;;7.20;6.70;;;9.60;25.60;;;;;;5064927;28;20184;-78
2024/02/13 05:55:42;;;;;;;8.27;7.77;;;9.60;25.50;;;;;;5066357;28;20470;-78
2024/02/13 05:58:08;;;;;;;8.30;7.60;;;9.40;25.50;;;;;;5061121;28;20431;-78
2024/02/13 06:00:34;;;;;;;7.63;7.10;;;9.10;26.10;;;;;;5062299;28;20933;-79
2024/02/13 06:03:00;;;;;;;7.80;7.20;;;8.90;27.40;;;;;;5064183;28;20180;-78
2024/02/13 06:05:27;;;;;;;7.50;6.90;;;8.80;27.40;;;;;;5065088;28;20219;-78
2024/02/13 06:07:52;;;;;;;9.87;8.03;;;8.70;27.60;;;;;;5062368;28;20481;-77
2024/02/13 06:10:18;;;;;;;8.57;7.90;;;8.60;28.00;;;;;;5063184;28;20423;-78
2024/02/13 06:12:45;;;;;;;8.53;7.93;;;8.60;28.10;;;;;;5065572;28;20239;-77
2024/02/13 06:15:11;;;;;;;8.20;7.63;;;8.70;28.00;;;;;;5060176;28;20616;-77
2024/02/13 06:17:36;;;;;;;8.53;7.93;;;8.60;27.90;;;;;;5057457;28;20415;-79
2024/02/13 06:20:05;;;;;;;8.47;7.87;;;8.70;28.10;;;;;;5069774;28;20231;-77
2024/02/13 06:22:32;;;;;;;9.50;9.00;;;8.60;27.80;;;;;;5073113;28;20265;-77
2024/02/13 06:25:04;;;;;;;9.37;8.50;;;8.60;28.10;;;;;;5057834;28;20434;-76
2024/02/13 06:27:34;;;;;;;8.40;8.00;;;8.60;28.20;;;;;;5056286;28;20826;-78
2024/02/13 06:30:00;;;;;;;8.70;8.10;;;8.70;27.80;;;;;;5055785;28;20426;-77
2024/02/13 06:32:26;;;;;;;9.33;8.53;;;8.90;27.70;;;;;;5070886;28;20923;-77
2024/02/13 06:34:53;;;;;;;9.43;8.83;;;8.70;27.50;;;;;;5058182;28;20506;-78
2024/02/13 06:37:19;;;;;;;9.70;9.20;;;8.60;27.70;;;;;;5059476;28;20434;-77
2024/02/13 06:39:45;;;;;;;9.10;8.50;;;8.70;27.60;;;;;;5057868;28;20418;-77
2024/02/13 06:42:11;;;;;;;9.33;8.63;;;8.50;28.20;;;;;;5056871;28;20801;-77
2024/02/13 06:44:37;;;;;;;8.33;7.80;;;8.40;28.50;;;;;;5056623;28;20333;-77
2024/02/13 06:47:06;;;;;;;8.90;8.20;;;8.50;28.60;;;;;;5055413;28;20451;-78
2024/02/13 06:49:33;;;;;;;8.87;8.27;;;8.70;28.40;;;;;;5058049;28;20437;-77
2024/02/13 06:51:59;;;;;;;10.10;9.17;;;8.80;27.60;;;;;;5063892;28;20411;-78
2024/02/13 06:54:24;;;;;;;8.80;8.20;;;9.00;27.30;;;;;;5064045;28;20434;-77
2024/02/13 06:56:50;;;;;;;9.20;8.60;;;9.30;26.70;;;;;;5068156;28;20466;-78
2024/02/13 06:59:16;;;;;;;9.30;8.60;;;9.40;25.70;;;;;;5064253;28;20180;-79
2024/02/13 07:01:42;;;;;;;9.30;8.80;;;9.30;26.00;;;;;;5064850;28;20430;-78
2024/02/13 07:04:07;;;;;;;9.50;8.70;;;9.10;26.60;;;;;;5062676;28;20176;-78
2024/02/13 07:06:33;;;;;;;8.90;8.20;;;9.10;26.90;;;;;;5064798;28;20259;-79
2024/02/13 07:08:58;;;;;;;8.23;7.63;;;9.00;26.60;;;;;;5066601;28;20188;-79
2024/02/13 07:11:24;;;;;;;10.03;9.33;;;8.90;26.90;;;;;;5066441;28;20189;-80
2024/02/13 07:13:50;;;;;;;8.53;8.03;;;9.10;27.10;;;;;;5067014;28;20184;-79
2024/02/13 07:16:15;;;;;;;8.33;7.93;;;9.20;26.60;;;;;;5064716;28;20480;-80
2024/02/13 07:18:42;;;;;;;8.97;8.17;;;9.30;26.10;;;;;;5067643;28;20180;-80
2024/02/13 07:21:07;;;;;;;7.90;7.50;;;9.40;25.90;;;;;;5067572;28;20199;-80
2024/02/13 07:23:34;;;;;;;8.47;7.87;;;9.60;25.20;;;;;;5083001;28;20964;-80
2024/02/13 07:26:00;;;;;;;6.90;6.43;;;9.80;24.80;;;;;;5068483;28;20199;-79
2024/02/13 07:28:27;;;;;;;9.10;8.40;;;10.00;23.50;;;;;;5068940;28;20422;-79
2024/02/13 07:30:53;;;;;;;8.10;7.60;;;10.10;23.30;;;;;;5068527;28;20426;-79
2024/02/13 07:33:19;;;;;;;8.07;7.67;;;10.00;23.20;;;;;;5067935;28;20494;-79
2024/02/13 07:35:44;;;;;;;9.00;8.30;;;9.80;24.00;;;;;;5068930;28;20462;-78
2024/02/13 07:38:10;;;;;;;8.80;8.10;;;9.70;24.60;;;;;;5067854;28;20177;-78
2024/02/13 07:40:35;;;;;;;9.37;8.67;;;9.50;25.10;;;;;;5064101;28;20188;-79
2024/02/13 07:43:01;;;;;;;8.20;7.60;;;9.60;25.30;;;;;;5064405;28;20202;-79
2024/02/13 07:45:27;;;;;;;8.40;8.00;;;9.70;25.30;;;;;;5062082;28;20204;-79
2024/02/13 07:47:53;;;;;;;9.20;8.33;;;9.90;24.90;;;;;;5063132;28;20229;-79
2024/02/13 07:50:19;;;;;;;9.33;8.50;;;10.10;23.60;;;;;;5063805;28;20183;-78
2024/02/13 07:52:45;;;;;;;9.53;8.63;;;10.20;23.30;;;;;;5064464;28;20429;-79
2024/02/13 07:55:11;;;;;;;9.70;8.40;;;10.40;22.90;;;;;;5063605;28;20462;-79
2024/02/13 07:57:37;;;;;;;8.67;7.87;;;10.30;22.80;;;;;;5062397;28;20977;-79
2024/02/13 08:00:04;;;;;;;9.43;8.83;;;10.10;22.60;;;;;;5066193;28;20433;-79
2024/02/13 08:02:30;;;;;;;8.30;7.80;;;9.90;23.90;;;;;;5064549;28;20896;-79
2024/02/13 08:04:55;;;;;;;7.73;7.13;;;9.80;23.80;;;;;;5063561;28;20443;-79
2024/02/13 08:07:27;;;;;;;7.57;7.07;;;9.70;24.60;;;;;;5064284;28;20449;-79
2024/02/13 08:09:56;;;;;;;8.60;8.10;;;9.70;25.30;;;;;;5065203;28;20192;-82
2024/02/13 08:12:21;;;;;;;8.60;8.10;;;9.70;24.80;;;;;;5063590;28;20513;-79
2024/02/13 08:14:47;;;;;;;8.50;7.90;;;9.60;24.80;;;;;;5059052;28;20516;-78
2024/02/13 08:17:14;;;;;;;7.60;7.20;;;9.50;24.80;;;;;;5059483;28;20280;-79
2024/02/13 08:19:40;;;;;;;7.90;7.30;;;9.50;25.10;;;;;;5060228;28;20414;-79
2024/02/13 08:22:07;;;;;;;9.10;8.40;;;9.40;25.10;;;;;;5063925;28;20187;-79
2024/02/13 08:24:33;;;;;;;8.10;7.70;;;9.40;25.30;;;;;;5068291;28;20447;-79
2024/02/13 08:26:59;;;;;;;7.90;7.50;;;9.50;25.30;;;;;;5067315;28;20468;-79
2024/02/13 08:29:25;;;;;;;8.37;7.67;;;9.70;24.90;;;;;;5066296;28;20419;-78
2024/02/13 08:31:51;;;;;;;8.33;7.67;;;9.70;24.60;;;;;;5065719;28;20501;-79
2024/02/13 08:34:21;;;;;;;7.60;7.10;;;9.90;24.60;;;;;;5063953;28;20430;-78
2024/02/13 08:36:48;;;;;;;7.90;7.50;;;10.00;23.20;;;;;;5064264;28;20458;-79
2024/02/13 08:39:14;;;;;;;7.70;7.07;;;10.10;23.30;;;;;;5055043;28;20426;-80
2024/02/13 08:41:40;;;;;;;7.83;7.33;;;10.20;22.40;;;;;;5056316;28;20474;-80
2024/02/13 08:44:07;;;;;;;7.80;7.30;;;10.00;22.60;;;;;;5058633;28;20199;-80
2024/02/13 08:46:33;;;;;;;7.20;6.80;;;10.00;23.20;;;;;;5058084;28;20426;-79
2024/02/13 08:48:58;;;;;;;7.63;6.93;;;10.10;22.80;;;;;;5057327;28;20811;-79
2024/02/13 08:51:26;;;;;;;7.70;7.13;;;10.00;22.10;;;;;;5058157;28;20241;-80
2024/02/13 08:53:52;;;;;;;7.20;6.80;;;9.70;23.40;;;;;;5060324;28;20770;-80
2024/02/13 08:56:18;;;;;;;6.93;6.50;;;9.60;23.70;;;;;;5059620;28;20465;-79
2024/02/13 08:58:44;;;;;;;7.93;7.27;;;9.80;23.60;;;;;;5075772;28;20411;-79
2024/02/13 09:01:10;;;;;;;7.10;6.70;;;10.00;22.30;;;;;;5060071;28;20572;-79
2024/02/13 09:03:35;;;;;;;7.93;7.30;;;9.70;23.10;;;;;;5059673;28;20683;-80
2024/02/13 09:06:04;;;;;;;7.17;6.87;;;9.60;23.70;;;;;;5058626;28;20238;-80
2024/02/13 09:08:36;;;;;;;7.67;7.03;;;9.40;23.50;;;;;;5059161;28;20293;-80
2024/02/13 09:11:01;;;;;;;8.13;7.53;;;9.30;23.50;;;;;;5065093;28;20414;-80
2024/02/13 09:13:28;;;;;;;8.20;7.40;;;9.30;23.50;;;;;;5063785;28;20426;-80
2024/02/13 09:15:55;;;;;;;8.17;7.47;;;9.40;23.60;;;;;;5062001;28;20238;-80
2024/02/13 09:18:24;;;;;;;6.90;6.50;;;9.40;23.50;;;;;;5063886;28;20418;-80
2024/02/13 09:20:49;;;;;;;7.20;6.70;;;9.40;23.50;;;;;;5055484;28;20482;-80
2024/02/13 09:23:18;;;;;;;7.50;7.13;;;9.40;23.50;;;;;;5063374;28;20453;-80
2024/02/13 09:25:49;;;;;;;6.70;6.40;;;9.50;23.80;;;;;;5063650;28;20198;-79
2024/02/13 09:28:18;;;;;;;7.10;6.70;;;9.70;23.70;;;;;;5062682;28;20460;-80
2024/02/13 09:30:47;;;;;;;7.37;6.97;;;10.00;22.00;;;;;;5061616;28;20930;-80
2024/02/13 09:33:14;;;;;;;7.27;6.70;;;10.30;21.60;;;;;;5064207;28;20429;-80
2024/02/13 09:35:39;;;;;;;6.40;6.00;;;10.50;21.00;;;;;;5062753;28;20564;-81
2024/02/13 09:38:06;;;;;;;6.20;5.97;;;10.70;19.70;;;;;;5061924;28;20426;-80
2024/02/13 09:40:32;;;;;;;7.30;6.90;;;10.80;19.50;;;;;;5063670;28;20223;-80
2024/02/13 09:42:58;;;;;;;7.20;6.90;;;10.90;19.40;;;;;;5063459;28;20414;-80
2024/02/13 09:45:25;;;;;;;6.07;5.67;;;10.90;18.40;;;;;;5061563;28;20200;-81
2024/02/13 09:47:52;;;;;;;6.00;5.70;;;10.90;18.30;;;;;;5060768;28;20188;-81
2024/02/13 09:50:17;;;;;;;7.87;6.73;;;10.60;19.50;;;;;;5062147;28;20426;-78
2024/02/13 09:52:50;;;;;;;7.43;6.93;;;10.60;19.20;;;;;;5061030;28;20425;-81
2024/02/13 09:55:18;;;;;;;6.63;6.33;;;10.50;19.30;;;;;;5062194;28;20277;-81
2024/02/13 09:57:45;;;;;;;6.70;6.20;;;10.40;19.60;;;;;;5060766;28;20407;-81
2024/02/13 10:00:16;;;;;;;6.57;5.93;;;10.30;19.30;;;;;;5060971;28;20456;-80
2024/02/13 10:02:42;;;;;;;6.70;6.30;;;10.40;19.70;;;;;;5062310;28;20415;-81
2024/02/13 10:05:10;;;;;;;6.90;6.50;;;10.30;19.20;;;;;;5060751;28;20513;-81
2024/02/13 10:07:40;;;;;;;8.00;7.40;;;10.40;19.40;;;;;;5061397;28;20986;-81
2024/02/13 10:10:11;;;;;;;6.93;6.50;;;10.40;19.50;;;;;;5078618;28;20438;-79
2024/02/13 10:12:55;;;;;;;6.27;5.97;;;10.50;19.40;;;;;;5059773;28;20415;-79
2024/02/13 10:15:21;;;;;;;6.67;6.27;;;10.40;19.10;;;;;;5076389;22;20522;-84
2024/02/13 10:17:48;;;;;;;6.80;6.40;;;10.50;19.20;;;;;;5053904;28;20419;-83
2024/02/13 10:20:17;;;;;;;6.73;6.43;;;10.70;18.50;;;;;;5045941;28;20415;-84
2024/02/13 10:22:54;;;;;;;6.00;5.70;;;10.80;18.40;;;;;;5038985;28;20459;-83
2024/02/13 10:25:31;;;;;;;7.07;6.67;;;10.80;17.40;;;;;;5044933;28;20451;-84
2024/02/13 10:28:11;;;;;;;7.23;6.63;;;10.70;17.20;;;;;;5049420;28;20451;-85
2024/02/13 10:30:39;;;;;;;6.90;6.67;;;10.60;18.10;;;;;;5032933;28;20519;-84
2024/02/13 10:33:08;;;;;;;6.70;6.20;;;10.30;18.40;;;;;;5035876;28;20462;-84
2024/02/13 10:35:34;;;;;;;7.10;6.70;;;10.20;18.90;;;;;;5017973;28;20471;-84
2024/02/13 10:38:04;;;;;;;6.93;6.43;;;10.10;19.10;;;;;;5034322;28;20510;-85
2024/02/13 10:40:30;;;;;;;6.60;6.27;;;10.20;19.20;;;;;;5034602;28;20267;-84
2024/02/13 10:42:59;;;;;;;6.83;6.40;;;10.30;18.60;;;;;;5035524;28;20451;-84
2024/02/13 10:45:30;;;;;;;6.73;5.97;;;10.30;18.50;;;;;;5036483;28;20223;-84
2024/02/13 10:48:28;;;;;;;6.77;6.37;;;10.20;18.40;;;;;;5036248;28;20442;-84
2024/02/13 10:51:03;;;;;;;6.37;6.03;;;10.10;18.50;;;;;;5029062;28;20423;-84
2024/02/13 10:54:15;;;;;;;6.00;5.60;;;10.20;18.60;;;;;;5038805;28;20435;-84
2024/02/13 10:56:45;;;;;;;6.53;6.13;;;10.30;18.10;;;;;;5036983;28;20546;-83
2024/02/13 10:59:12;;;;;;;7.27;6.87;;;10.40;17.10;;;;;;5038478;28;20471;-83
2024/02/13 11:01:40;;;;;;;6.00;5.70;;;10.40;16.00;;;;;;5039768;28;20777;-84
2024/02/13 11:04:05;;;;;;;6.00;5.70;;;10.40;15.80;;;;;;5037496;28;20415;-84
2024/02/13 11:06:32;;;;;;;6.50;5.77;;;10.40;16.50;;;;;;5037679;28;20446;-83
2024/02/13 11:08:58;;;;;;;7.37;6.80;;;10.40;16.80;;;;;;5035362;28;20191;-83
2024/02/13 11:11:25;;;;;;;6.57;6.27;;;10.40;16.20;;;;;;5042719;28;20488;-83
2024/02/13 11:13:51;;;;;;;6.83;6.53;;;10.50;15.20;;;;;;5045370;28;20187;-83
2024/02/13 11:16:20;;;;;;;6.97;6.47;;;10.50;15.20;;;;;;5044794;28;20471;-84
2024/02/13 11:18:51;;;;;;;6.60;6.30;;;10.40;15.20;;;;;;5044623;28;20484;-84
2024/02/13 11:21:21;;;;;;;6.03;5.57;;;10.50;15.20;;;;;;5050159;28;20938;-83
2024/02/13 11:23:52;;;;;;;6.57;6.27;;;10.60;14.70;;;;;;5044068;28;20506;-83
2024/02/13 11:26:18;;;;;;;6.50;6.07;;;10.60;14.90;;;;;;5047358;28;20462;-83
2024/02/13 11:28:45;;;;;;;6.57;6.27;;;10.60;15.30;;;;;;5047749;28;20415;-83
2024/02/13 11:31:14;;;;;;;6.90;6.50;;;10.70;15.60;;;;;;5050882;28;20419;-84
2024/02/13 11:33:59;;;;;;;6.67;6.27;;;10.80;15.10;;;;;;5048850;28;20408;-84
2024/02/13 11:36:25;;;;;;;6.53;6.27;;;10.80;14.60;;;;;;5047875;28;20531;-84
2024/02/13 11:38:56;;;;;;;7.80;5.97;;;10.80;15.10;;;;;;5045468;28;20415;-84
2024/02/13 11:41:30;;;;;;;5.83;5.63;;;10.60;14.70;;;;;;5043124;28;20411;-84
2024/02/13 11:44:07;;;;;;;6.90;6.50;;;10.80;14.70;;;;;;5043094;28;20426;-84
2024/02/13 11:46:59;;;;;;;6.67;6.33;;;10.90;14.40;;;;;;5043069;28;20434;-84
2024/02/13 11:49:26;;;;;;;5.70;5.40;;;10.90;14.40;;;;;;5039873;28;20423;-84
2024/02/13 11:51:52;;;;;;;7.27;6.80;;;11.00;13.70;;;;;;5040991;28;20934;-84
2024/02/13 11:54:32;;;;;;;6.63;6.23;;;10.90;13.80;;;;;;5045718;28;20407;-84
2024/02/13 11:56:58;;;;;;;6.30;5.90;;;10.90;13.00;;;;;;5047770;28;20955;-85
2024/02/13 11:59:27;;;;;;;5.57;5.37;;;10.90;12.60;;;;;;5025251;28;20420;-84
2024/02/13 12:02:00;;;;;;;6.07;5.63;;;10.90;12.60;;;;;;5045410;28;20408;-85
2024/02/13 12:04:27;;;;;;;6.63;6.23;;;10.90;12.20;;;;;;5045822;28;20442;-86
2024/02/13 12:06:52;;;;;;;5.50;5.20;;;11.00;12.20;;;;;;5041798;28;20518;-85
2024/02/13 12:09:19;;;;;;;6.60;6.00;;;11.10;12.40;;;;;;5036824;28;20451;-85
2024/02/13 12:11:45;;;;;;;6.50;6.17;;;11.30;12.10;;;;;;5039593;28;21025;-85
2024/02/13 12:14:13;;;;;;;5.43;5.13;;;11.50;11.60;;;;;;5036387;28;20506;-85
2024/02/13 12:16:42;;;;;;;5.40;5.10;;;11.50;11.80;;;;;;5039187;28;20471;-86
2024/02/13 12:19:30;;;;;;;5.70;5.30;;;11.50;10.70;;;;;;5042841;28;20428;-86
2024/02/13 12:22:59;;;;;;;5.80;5.50;;;11.40;11.40;;;;;;5044864;28;20435;-86
2024/02/13 12:25:59;;;;;;;6.50;6.20;;;11.40;10.70;;;;;;4955848;28;20434;-84
2024/02/13 12:28:31;;;;;;;7.07;6.77;;;11.50;10.20;;;;;;4948504;28;20467;-85
2024/02/13 12:30:58;;;;;;;5.90;5.70;;;11.50;10.60;;;;;;4994688;28;20911;-84
2024/02/13 12:34:21;;;;;;;6.10;5.80;;;11.50;10.00;;;;;;5042671;28;20499;-85
2024/02/13 12:37:00;;;;;;;6.70;6.37;;;11.50;10.30;;;;;;5041518;28;20469;-86
2024/02/13 12:42:41;;;;;;;6.67;6.37;;;11.50;9.90;;;;;;5039740;28;20414;-86
2024/02/13 12:45:10;;;;;;;5.40;5.30;;;11.50;10.00;;;;;;5044583;28;20454;-85
2024/02/13 12:47:44;;;;;;;7.07;6.77;;;11.50;10.20;;;;;;5037022;28;20436;-87
2024/02/13 12:50:16;;;;;;;6.57;6.27;;;11.60;10.60;;;;;;5030375;28;20416;-87
2024/02/13 12:52:42;;;;;;;6.83;6.63;;;11.60;8.90;;;;;;5030929;28;20412;-86
2024/02/13 12:55:12;;;;;;;5.47;5.27;;;11.60;9.00;;;;;;5025716;28;20443;-86
2024/02/13 12:58:27;;;;;;;6.00;5.70;;;11.60;9.30;;;;;;5033703;28;20877;-87
2024/02/13 13:01:03;;;;;;;6.13;5.77;;;11.80;9.30;;;;;;5022657;28;20432;-86
2024/02/13 13:04:31;;;;;;;;;;;;;;;;;;;;;
2024/02/13 13:07:44;;;;;;;6.73;6.43;;;12.00;9.40;;;;;;5027943;28;20435;-86
2024/02/13 13:13:33;;;;;;;5.93;5.70;;;12.10;8.80;;;;;;5042306;28;20410;-86